sensor_id;sensor_type;location;lat;lon;timestamp;P1;durP1;ratioP1;P2;durP2;ratioP2
75739;SDS011;64357;51.344;6.550;2024-02-04T00:01:48;3.30;;;1.40;;
75739;SDS011;64357;51.344;6.550;2024-02-04T00:04:17;4.68;;;2.00;;
75739;SDS011;64357;51.344;6.550;2024-02-04T00:06:45;4.95;;;1.67;;
75739;SDS011;64357;51.344;6.550;2024-02-04T00:21:18;5.95;;;2.55;;
75739;SDS011;64357;51.344;6.550;2024-02-04T00:23:51;6.32;;;2.30;;
75739;SDS011;64357;51.344;6.550;2024-02-04T00:40:53;8.82;;;3.08;;
75739;SDS011;64357;51.344;6.550;2024-02-04T00:56:47;10.27;;;4.00;;
75739;SDS011;64357;51.344;6.550;2024-02-04T01:23:26;6.40;;;2.70;;
75739;SDS011;64357;51.344;6.550;2024-02-04T01:25:51;6.72;;;2.70;;
75739;SDS011;64357;51.344;6.550;2024-02-04T01:28:17;5.57;;;2.38;;
75739;SDS011;64357;51.344;6.550;2024-02-04T01:30:42;4.82;;;2.47;;
75739;SDS011;64357;51.344;6.550;2024-02-04T01:33:09;5.85;;;2.50;;
75739;SDS011;64357;51.344;6.550;2024-02-04T01:35:35;6.38;;;2.47;;
75739;SDS011;64357;51.344;6.550;2024-02-04T01:38:16;7.18;;;2.65;;
75739;SDS011;64357;51.344;6.550;2024-02-04T01:40:41;5.50;;;2.58;;
75739;SDS011;64357;51.344;6.550;2024-02-04T01:43:14;7.20;;;2.42;;
75739;SDS011;64357;51.344;6.550;2024-02-04T01:45:39;5.88;;;2.67;;
75739;SDS011;64357;51.344;6.550;2024-02-04T01:48:05;7.20;;;2.83;;
75739;SDS011;64357;51.344;6.550;2024-02-04T01:50:30;7.03;;;2.83;;
75739;SDS011;64357;51.344;6.550;2024-02-04T01:52:56;5.70;;;2.30;;
75739;SDS011;64357;51.344;6.550;2024-02-04T01:55:22;8.18;;;3.40;;
75739;SDS011;64357;51.344;6.550;2024-02-04T01:57:48;7.57;;;2.70;;
75739;SDS011;64357;51.344;6.550;2024-02-04T02:00:17;8.05;;;3.25;;
75739;SDS011;64357;51.344;6.550;2024-02-04T02:02:46;8.38;;;2.80;;
75739;SDS011;64357;51.344;6.550;2024-02-04T02:05:16;9.60;;;3.33;;
75739;SDS011;64357;51.344;6.550;2024-02-04T02:07:43;8.50;;;3.20;;
75739;SDS011;64357;51.344;6.550;2024-02-04T02:10:11;9.55;;;3.15;;
75739;SDS011;64357;51.344;6.550;2024-02-04T02:12:40;7.90;;;3.17;;
75739;SDS011;64357;51.344;6.550;2024-02-04T02:15:14;9.73;;;3.22;;
75739;SDS011;64357;51.344;6.550;2024-02-04T02:23:36;9.40;;;3.33;;
75739;SDS011;64357;51.344;6.550;2024-02-04T02:26:25;7.45;;;3.58;;
75739;SDS011;64357;51.344;6.550;2024-02-04T02:28:53;11.98;;;5.53;;
75739;SDS011;64357;51.344;6.550;2024-02-04T02:31:19;10.40;;;4.32;;
75739;SDS011;64357;51.344;6.550;2024-02-04T02:33:44;6.32;;;2.92;;
75739;SDS011;64357;51.344;6.550;2024-02-04T02:36:11;8.75;;;3.83;;
75739;SDS011;64357;51.344;6.550;2024-02-04T02:41:35;7.47;;;2.90;;
75739;SDS011;64357;51.344;6.550;2024-02-04T02:44:04;6.65;;;3.13;;
75739;SDS011;64357;51.344;6.550;2024-02-04T02:47:07;9.63;;;5.03;;
75739;SDS011;64357;51.344;6.550;2024-02-04T02:49:38;7.03;;;2.95;;
75739;SDS011;64357;51.344;6.550;2024-02-04T02:52:13;7.93;;;3.15;;
75739;SDS011;64357;51.344;6.550;2024-02-04T02:54:44;10.77;;;4.63;;
75739;SDS011;64357;51.344;6.550;2024-02-04T02:57:15;9.57;;;4.03;;
75739;SDS011;64357;51.344;6.550;2024-02-04T03:00:05;10.35;;;4.05;;
75739;SDS011;64357;51.344;6.550;2024-02-04T03:02:38;8.98;;;3.90;;
75739;SDS011;64357;51.344;6.550;2024-02-04T03:05:10;10.23;;;4.55;;
75739;SDS011;64357;51.344;6.550;2024-02-04T03:07:37;10.02;;;4.43;;
75739;SDS011;64357;51.344;6.550;2024-02-04T03:10:03;11.73;;;4.90;;
75739;SDS011;64357;51.344;6.550;2024-02-04T03:12:31;10.20;;;3.92;;
75739;SDS011;64357;51.344;6.550;2024-02-04T03:14:57;10.47;;;3.67;;
75739;SDS011;64357;51.344;6.550;2024-02-04T03:17:22;7.43;;;2.65;;
75739;SDS011;64357;51.344;6.550;2024-02-04T03:19:48;7.88;;;3.30;;
75739;SDS011;64357;51.344;6.550;2024-02-04T03:22:17;7.45;;;2.90;;
75739;SDS011;64357;51.344;6.550;2024-02-04T03:24:44;10.00;;;4.00;;
75739;SDS011;64357;51.344;6.550;2024-02-04T03:27:09;6.00;;;2.40;;
75739;SDS011;64357;51.344;6.550;2024-02-04T03:29:36;8.73;;;3.72;;
75739;SDS011;64357;51.344;6.550;2024-02-04T03:32:02;7.03;;;2.40;;
75739;SDS011;64357;51.344;6.550;2024-02-04T03:34:29;8.63;;;3.47;;
75739;SDS011;64357;51.344;6.550;2024-02-04T03:36:54;10.40;;;4.03;;
75739;SDS011;64357;51.344;6.550;2024-02-04T03:39:39;10.20;;;4.20;;
75739;SDS011;64357;51.344;6.550;2024-02-04T03:42:05;8.70;;;3.85;;
75739;SDS011;64357;51.344;6.550;2024-02-04T03:44:30;6.82;;;3.47;;
75739;SDS011;64357;51.344;6.550;2024-02-04T03:46:56;12.48;;;5.00;;
75739;SDS011;64357;51.344;6.550;2024-02-04T03:49:22;10.27;;;3.95;;
75739;SDS011;64357;51.344;6.550;2024-02-04T03:51:47;9.40;;;4.00;;
75739;SDS011;64357;51.344;6.550;2024-02-04T03:54:13;10.30;;;4.28;;
75739;SDS011;64357;51.344;6.550;2024-02-04T03:56:38;12.60;;;5.45;;
75739;SDS011;64357;51.344;6.550;2024-02-04T03:59:03;18.42;;;7.22;;
75739;SDS011;64357;51.344;6.550;2024-02-04T04:01:29;15.87;;;6.23;;
75739;SDS011;64357;51.344;6.550;2024-02-04T04:03:54;13.35;;;6.28;;
75739;SDS011;64357;51.344;6.550;2024-02-04T04:06:19;14.77;;;6.27;;
75739;SDS011;64357;51.344;6.550;2024-02-04T04:08:45;12.00;;;6.13;;
75739;SDS011;64357;51.344;6.550;2024-02-04T04:11:10;11.37;;;5.83;;
75739;SDS011;64357;51.344;6.550;2024-02-04T04:13:36;16.75;;;5.45;;
75739;SDS011;64357;51.344;6.550;2024-02-04T04:16:05;14.52;;;6.35;;
75739;SDS011;64357;51.344;6.550;2024-02-04T04:18:31;16.13;;;6.95;;
75739;SDS011;64357;51.344;6.550;2024-02-04T04:21:01;11.77;;;5.28;;
75739;SDS011;64357;51.344;6.550;2024-02-04T04:23:28;12.50;;;5.82;;
75739;SDS011;64357;51.344;6.550;2024-02-04T04:25:53;12.97;;;6.70;;
75739;SDS011;64357;51.344;6.550;2024-02-04T04:28:19;15.27;;;5.70;;
75739;SDS011;64357;51.344;6.550;2024-02-04T04:30:44;9.70;;;4.47;;
75739;SDS011;64357;51.344;6.550;2024-02-04T04:33:12;10.65;;;4.55;;
75739;SDS011;64357;51.344;6.550;2024-02-04T04:35:38;16.00;;;6.18;;
75739;SDS011;64357;51.344;6.550;2024-02-04T04:38:03;13.20;;;5.22;;
75739;SDS011;64357;51.344;6.550;2024-02-04T04:40:29;13.70;;;5.33;;
75739;SDS011;64357;51.344;6.550;2024-02-04T04:42:54;14.15;;;6.32;;
75739;SDS011;64357;51.344;6.550;2024-02-04T04:45:19;16.40;;;5.73;;
75739;SDS011;64357;51.344;6.550;2024-02-04T04:47:46;15.07;;;6.35;;
75739;SDS011;64357;51.344;6.550;2024-02-04T04:50:12;15.17;;;7.17;;
75739;SDS011;64357;51.344;6.550;2024-02-04T04:52:39;19.07;;;8.00;;
75739;SDS011;64357;51.344;6.550;2024-02-04T04:55:05;18.52;;;6.40;;
75739;SDS011;64357;51.344;6.550;2024-02-04T04:57:30;19.40;;;8.95;;
75739;SDS011;64357;51.344;6.550;2024-02-04T04:59:58;12.75;;;6.35;;
75739;SDS011;64357;51.344;6.550;2024-02-04T05:02:31;21.25;;;7.45;;
75739;SDS011;64357;51.344;6.550;2024-02-04T05:04:56;14.43;;;7.15;;
75739;SDS011;64357;51.344;6.550;2024-02-04T05:07:22;13.97;;;7.03;;
75739;SDS011;64357;51.344;6.550;2024-02-04T05:09:47;15.73;;;7.30;;
75739;SDS011;64357;51.344;6.550;2024-02-04T05:12:12;16.20;;;6.35;;
75739;SDS011;64357;51.344;6.550;2024-02-04T05:14:38;17.75;;;7.50;;
75739;SDS011;64357;51.344;6.550;2024-02-04T05:17:04;16.83;;;6.83;;
75739;SDS011;64357;51.344;6.550;2024-02-04T05:19:30;18.00;;;10.13;;
75739;SDS011;64357;51.344;6.550;2024-02-04T05:21:55;11.93;;;5.50;;
75739;SDS011;64357;51.344;6.550;2024-02-04T05:24:21;18.47;;;9.83;;
75739;SDS011;64357;51.344;6.550;2024-02-04T05:26:46;24.07;;;8.83;;
75739;SDS011;64357;51.344;6.550;2024-02-04T05:29:11;15.97;;;6.70;;
75739;SDS011;64357;51.344;6.550;2024-02-04T05:31:43;11.70;;;5.67;;
75739;SDS011;64357;51.344;6.550;2024-02-04T05:34:11;17.20;;;7.28;;
75739;SDS011;64357;51.344;6.550;2024-02-04T05:36:36;20.98;;;8.43;;
75739;SDS011;64357;51.344;6.550;2024-02-04T05:39:09;18.85;;;8.43;;
75739;SDS011;64357;51.344;6.550;2024-02-04T05:41:38;16.52;;;6.93;;
75739;SDS011;64357;51.344;6.550;2024-02-04T05:44:05;21.85;;;9.40;;
75739;SDS011;64357;51.344;6.550;2024-02-04T05:46:34;20.80;;;9.07;;
75739;SDS011;64357;51.344;6.550;2024-02-04T05:49:00;21.05;;;8.05;;
75739;SDS011;64357;51.344;6.550;2024-02-04T05:51:25;24.23;;;9.53;;
75739;SDS011;64357;51.344;6.550;2024-02-04T05:53:53;12.07;;;4.80;;
75739;SDS011;64357;51.344;6.550;2024-02-04T05:56:18;25.45;;;8.90;;
75739;SDS011;64357;51.344;6.550;2024-02-04T05:58:47;19.10;;;7.97;;
75739;SDS011;64357;51.344;6.550;2024-02-04T06:01:13;23.42;;;9.05;;
75739;SDS011;64357;51.344;6.550;2024-02-04T06:03:41;21.08;;;8.10;;
75739;SDS011;64357;51.344;6.550;2024-02-04T06:06:09;24.13;;;10.25;;
75739;SDS011;64357;51.344;6.550;2024-02-04T06:08:39;18.70;;;7.78;;
75739;SDS011;64357;51.344;6.550;2024-02-04T06:11:09;20.48;;;6.38;;
75739;SDS011;64357;51.344;6.550;2024-02-04T06:13:35;19.10;;;7.47;;
75739;SDS011;64357;51.344;6.550;2024-02-04T06:16:03;19.00;;;7.70;;
75739;SDS011;64357;51.344;6.550;2024-02-04T06:18:30;21.10;;;8.68;;
75739;SDS011;64357;51.344;6.550;2024-02-04T06:20:57;14.00;;;6.53;;
75739;SDS011;64357;51.344;6.550;2024-02-04T06:23:23;17.47;;;5.77;;
75739;SDS011;64357;51.344;6.550;2024-02-04T06:25:51;17.50;;;6.32;;
75739;SDS011;64357;51.344;6.550;2024-02-04T06:28:18;15.32;;;6.88;;
75739;SDS011;64357;51.344;6.550;2024-02-04T06:30:44;15.60;;;6.30;;
75739;SDS011;64357;51.344;6.550;2024-02-04T06:33:09;16.23;;;6.15;;
75739;SDS011;64357;51.344;6.550;2024-02-04T06:35:34;21.17;;;8.18;;
75739;SDS011;64357;51.344;6.550;2024-02-04T06:38:03;14.77;;;6.40;;
75739;SDS011;64357;51.344;6.550;2024-02-04T06:40:28;17.42;;;6.05;;
75739;SDS011;64357;51.344;6.550;2024-02-04T06:42:55;15.03;;;5.20;;
75739;SDS011;64357;51.344;6.550;2024-02-04T06:45:22;12.40;;;3.97;;
75739;SDS011;64357;51.344;6.550;2024-02-04T06:47:52;14.85;;;5.80;;
75739;SDS011;64357;51.344;6.550;2024-02-04T06:50:23;12.05;;;6.60;;
75739;SDS011;64357;51.344;6.550;2024-02-04T06:52:56;17.40;;;9.52;;
75739;SDS011;64357;51.344;6.550;2024-02-04T06:55:21;10.50;;;4.38;;
75739;SDS011;64357;51.344;6.550;2024-02-04T06:57:49;15.18;;;6.32;;
75739;SDS011;64357;51.344;6.550;2024-02-04T07:00:17;17.38;;;6.80;;
75739;SDS011;64357;51.344;6.550;2024-02-04T07:02:46;18.92;;;6.70;;
75739;SDS011;64357;51.344;6.550;2024-02-04T07:05:14;15.88;;;5.28;;
75739;SDS011;64357;51.344;6.550;2024-02-04T07:07:41;15.60;;;5.65;;
75739;SDS011;64357;51.344;6.550;2024-02-04T07:10:06;16.30;;;5.32;;
75739;SDS011;64357;51.344;6.550;2024-02-04T07:12:35;15.77;;;5.43;;
75739;SDS011;64357;51.344;6.550;2024-02-04T07:15:17;12.43;;;4.88;;
75739;SDS011;64357;51.344;6.550;2024-02-04T07:17:50;13.32;;;4.88;;
75739;SDS011;64357;51.344;6.550;2024-02-04T07:20:19;12.15;;;4.60;;
75739;SDS011;64357;51.344;6.550;2024-02-04T07:22:47;14.55;;;5.72;;
75739;SDS011;64357;51.344;6.550;2024-02-04T07:25:14;8.00;;;3.28;;
75739;SDS011;64357;51.344;6.550;2024-02-04T07:27:40;9.15;;;3.97;;
75739;SDS011;64357;51.344;6.550;2024-02-04T07:30:05;11.35;;;3.92;;
75739;SDS011;64357;51.344;6.550;2024-02-04T07:32:31;11.73;;;3.92;;
75739;SDS011;64357;51.344;6.550;2024-02-04T07:35:01;9.02;;;4.55;;
75739;SDS011;64357;51.344;6.550;2024-02-04T07:37:29;10.75;;;4.22;;
75739;SDS011;64357;51.344;6.550;2024-02-04T07:39:58;12.10;;;4.80;;
75739;SDS011;64357;51.344;6.550;2024-02-04T07:42:38;10.40;;;3.58;;
75739;SDS011;64357;51.344;6.550;2024-02-04T07:45:18;8.40;;;3.83;;
75739;SDS011;64357;51.344;6.550;2024-02-04T07:47:51;7.85;;;4.00;;
75739;SDS011;64357;51.344;6.550;2024-02-04T07:50:53;7.97;;;3.33;;
75739;SDS011;64357;51.344;6.550;2024-02-04T07:53:41;9.05;;;3.67;;
75739;SDS011;64357;51.344;6.550;2024-02-04T07:56:54;10.02;;;4.13;;
75739;SDS011;64357;51.344;6.550;2024-02-04T07:59:20;11.10;;;5.07;;
75739;SDS011;64357;51.344;6.550;2024-02-04T08:01:45;12.03;;;3.97;;
75739;SDS011;64357;51.344;6.550;2024-02-04T08:04:11;7.50;;;3.72;;
75739;SDS011;64357;51.344;6.550;2024-02-04T08:06:37;11.63;;;4.05;;
75739;SDS011;64357;51.344;6.550;2024-02-04T08:09:03;9.27;;;4.40;;
75739;SDS011;64357;51.344;6.550;2024-02-04T08:11:31;9.35;;;3.67;;
75739;SDS011;64357;51.344;6.550;2024-02-04T08:13:57;11.18;;;4.85;;
75739;SDS011;64357;51.344;6.550;2024-02-04T08:16:23;9.90;;;3.80;;
75739;SDS011;64357;51.344;6.550;2024-02-04T08:18:51;10.35;;;4.38;;
75739;SDS011;64357;51.344;6.550;2024-02-04T08:21:19;8.55;;;4.28;;
75739;SDS011;64357;51.344;6.550;2024-02-04T08:23:46;9.82;;;3.72;;
75739;SDS011;64357;51.344;6.550;2024-02-04T08:26:15;9.55;;;3.20;;
75739;SDS011;64357;51.344;6.550;2024-02-04T08:28:43;6.90;;;3.15;;
75739;SDS011;64357;51.344;6.550;2024-02-04T08:31:08;8.30;;;3.45;;
75739;SDS011;64357;51.344;6.550;2024-02-04T08:33:36;10.55;;;4.40;;
75739;SDS011;64357;51.344;6.550;2024-02-04T08:36:01;9.00;;;3.23;;
75739;SDS011;64357;51.344;6.550;2024-02-04T08:38:30;13.98;;;4.18;;
75739;SDS011;64357;51.344;6.550;2024-02-04T08:40:55;7.20;;;3.67;;
75739;SDS011;64357;51.344;6.550;2024-02-04T08:43:20;8.73;;;2.93;;
75739;SDS011;64357;51.344;6.550;2024-02-04T08:45:46;8.67;;;3.40;;
75739;SDS011;64357;51.344;6.550;2024-02-04T08:48:11;9.30;;;3.93;;
75739;SDS011;64357;51.344;6.550;2024-02-04T08:50:36;9.57;;;4.20;;
75739;SDS011;64357;51.344;6.550;2024-02-04T08:53:02;8.40;;;3.47;;
75739;SDS011;64357;51.344;6.550;2024-02-04T08:55:30;9.35;;;3.65;;
75739;SDS011;64357;51.344;6.550;2024-02-04T08:57:55;9.25;;;4.03;;
75739;SDS011;64357;51.344;6.550;2024-02-04T09:00:23;10.13;;;4.00;;
75739;SDS011;64357;51.344;6.550;2024-02-04T09:02:48;8.55;;;3.67;;
75739;SDS011;64357;51.344;6.550;2024-02-04T09:05:16;10.50;;;3.67;;
75739;SDS011;64357;51.344;6.550;2024-02-04T09:07:43;8.63;;;3.95;;
75739;SDS011;64357;51.344;6.550;2024-02-04T09:10:08;8.73;;;3.00;;
75739;SDS011;64357;51.344;6.550;2024-02-04T09:12:51;9.05;;;3.45;;
75739;SDS011;64357;51.344;6.550;2024-02-04T09:15:27;10.90;;;3.47;;
75739;SDS011;64357;51.344;6.550;2024-02-04T09:17:58;4.43;;;1.83;;
75739;SDS011;64357;51.344;6.550;2024-02-04T09:20:24;6.88;;;3.55;;
75739;SDS011;64357;51.344;6.550;2024-02-04T09:22:58;9.18;;;4.15;;
75739;SDS011;64357;51.344;6.550;2024-02-04T09:25:24;9.32;;;3.08;;
75739;SDS011;64357;51.344;6.550;2024-02-04T09:27:52;8.85;;;3.38;;
75739;SDS011;64357;51.344;6.550;2024-02-04T09:30:30;9.38;;;3.55;;
75739;SDS011;64357;51.344;6.550;2024-02-04T09:32:59;7.22;;;3.22;;
75739;SDS011;64357;51.344;6.550;2024-02-04T09:35:25;6.18;;;2.70;;
75739;SDS011;64357;51.344;6.550;2024-02-04T09:37:50;6.45;;;2.45;;
75739;SDS011;64357;51.344;6.550;2024-02-04T09:40:26;8.20;;;2.83;;
75739;SDS011;64357;51.344;6.550;2024-02-04T09:42:59;7.53;;;2.75;;
75739;SDS011;64357;51.344;6.550;2024-02-04T09:45:30;9.77;;;3.53;;
75739;SDS011;64357;51.344;6.550;2024-02-04T09:48:15;6.43;;;2.80;;
75739;SDS011;64357;51.344;6.550;2024-02-04T09:51:25;11.43;;;3.85;;
75739;SDS011;64357;51.344;6.550;2024-02-04T09:54:11;6.93;;;2.70;;
75739;SDS011;64357;51.344;6.550;2024-02-04T09:56:57;6.90;;;2.85;;
75739;SDS011;64357;51.344;6.550;2024-02-04T09:59:52;8.55;;;2.90;;
75739;SDS011;64357;51.344;6.550;2024-02-04T10:02:24;7.72;;;2.83;;
75739;SDS011;64357;51.344;6.550;2024-02-04T10:04:53;9.57;;;3.70;;
75739;SDS011;64357;51.344;6.550;2024-02-04T10:11:24;6.32;;;3.08;;
75739;SDS011;64357;51.344;6.550;2024-02-04T10:14:02;10.48;;;2.70;;
75739;SDS011;64357;51.344;6.550;2024-02-04T10:16:46;4.45;;;2.10;;
75739;SDS011;64357;51.344;6.550;2024-02-04T10:19:20;5.63;;;2.30;;
75739;SDS011;64357;51.344;6.550;2024-02-04T10:22:06;7.85;;;2.30;;
75739;SDS011;64357;51.344;6.550;2024-02-04T10:24:32;8.70;;;2.50;;
75739;SDS011;64357;51.344;6.550;2024-02-04T10:26:58;10.25;;;3.60;;
75739;SDS011;64357;51.344;6.550;2024-02-04T10:29:24;7.43;;;2.50;;
75739;SDS011;64357;51.344;6.550;2024-02-04T10:31:56;7.00;;;3.80;;
75739;SDS011;64357;51.344;6.550;2024-02-04T10:34:26;9.25;;;3.03;;
75739;SDS011;64357;51.344;6.550;2024-02-04T10:36:52;7.55;;;2.53;;
75739;SDS011;64357;51.344;6.550;2024-02-04T10:39:18;7.72;;;3.00;;
75739;SDS011;64357;51.344;6.550;2024-02-04T10:41:47;10.55;;;3.40;;
75739;SDS011;64357;51.344;6.550;2024-02-04T10:44:16;11.82;;;2.97;;
75739;SDS011;64357;51.344;6.550;2024-02-04T10:46:49;7.32;;;2.75;;
75739;SDS011;64357;51.344;6.550;2024-02-04T10:49:16;9.05;;;3.72;;
75739;SDS011;64357;51.344;6.550;2024-02-04T10:51:43;10.07;;;4.15;;
75739;SDS011;64357;51.344;6.550;2024-02-04T10:54:10;8.27;;;3.15;;
75739;SDS011;64357;51.344;6.550;2024-02-04T10:56:38;9.18;;;3.75;;
75739;SDS011;64357;51.344;6.550;2024-02-04T10:59:10;8.27;;;3.70;;
75739;SDS011;64357;51.344;6.550;2024-02-04T11:01:46;7.28;;;2.88;;
75739;SDS011;64357;51.344;6.550;2024-02-04T11:04:20;9.90;;;3.95;;
75739;SDS011;64357;51.344;6.550;2024-02-04T11:06:56;7.40;;;2.72;;
75739;SDS011;64357;51.344;6.550;2024-02-04T11:09:43;9.18;;;2.90;;
75739;SDS011;64357;51.344;6.550;2024-02-04T11:12:20;11.80;;;4.43;;
75739;SDS011;64357;51.344;6.550;2024-02-04T11:14:51;6.47;;;2.88;;
75739;SDS011;64357;51.344;6.550;2024-02-04T11:17:42;7.82;;;2.60;;
75739;SDS011;64357;51.344;6.550;2024-02-04T11:28:06;11.23;;;4.50;;
75739;SDS011;64357;51.344;6.550;2024-02-04T11:30:51;11.80;;;4.07;;
75739;SDS011;64357;51.344;6.550;2024-02-04T11:33:21;10.25;;;3.90;;
75739;SDS011;64357;51.344;6.550;2024-02-04T11:35:58;6.20;;;2.63;;
75739;SDS011;64357;51.344;6.550;2024-02-04T11:38:36;7.28;;;2.42;;
75739;SDS011;64357;51.344;6.550;2024-02-04T11:41:05;8.45;;;3.00;;
75739;SDS011;64357;51.344;6.550;2024-02-04T11:43:33;11.88;;;3.58;;
75739;SDS011;64357;51.344;6.550;2024-02-04T11:46:00;9.10;;;2.92;;
75739;SDS011;64357;51.344;6.550;2024-02-04T11:48:32;6.63;;;2.35;;
75739;SDS011;64357;51.344;6.550;2024-02-04T11:50:59;6.90;;;2.85;;
75739;SDS011;64357;51.344;6.550;2024-02-04T11:53:28;7.63;;;3.08;;
75739;SDS011;64357;51.344;6.550;2024-02-04T11:55:57;7.53;;;3.17;;
75739;SDS011;64357;51.344;6.550;2024-02-04T11:58:26;8.10;;;2.90;;
75739;SDS011;64357;51.344;6.550;2024-02-04T12:00:52;9.40;;;3.50;;
75739;SDS011;64357;51.344;6.550;2024-02-04T12:03:30;7.20;;;2.75;;
75739;SDS011;64357;51.344;6.550;2024-02-04T12:05:57;8.35;;;3.05;;
75739;SDS011;64357;51.344;6.550;2024-02-04T12:08:23;5.47;;;2.22;;
75739;SDS011;64357;51.344;6.550;2024-02-04T12:10:49;9.23;;;2.97;;
75739;SDS011;64357;51.344;6.550;2024-02-04T12:13:15;6.60;;;2.70;;
75739;SDS011;64357;51.344;6.550;2024-02-04T12:15:40;7.05;;;3.05;;
75739;SDS011;64357;51.344;6.550;2024-02-04T12:18:10;3.42;;;1.55;;
75739;SDS011;64357;51.344;6.550;2024-02-04T12:23:12;3.70;;;1.48;;
75739;SDS011;64357;51.344;6.550;2024-02-04T12:25:40;6.03;;;2.60;;
75739;SDS011;64357;51.344;6.550;2024-02-04T12:28:05;6.88;;;2.78;;
75739;SDS011;64357;51.344;6.550;2024-02-04T12:30:32;11.13;;;3.40;;
75739;SDS011;64357;51.344;6.550;2024-02-04T12:33:05;5.53;;;2.67;;
75739;SDS011;64357;51.344;6.550;2024-02-04T12:35:33;5.65;;;2.33;;
75739;SDS011;64357;51.344;6.550;2024-02-04T12:38:03;8.00;;;2.40;;
75739;SDS011;64357;51.344;6.550;2024-02-04T12:40:32;6.65;;;2.50;;
75739;SDS011;64357;51.344;6.550;2024-02-04T12:42:58;7.93;;;2.70;;
75739;SDS011;64357;51.344;6.550;2024-02-04T12:45:27;9.10;;;2.88;;
75739;SDS011;64357;51.344;6.550;2024-02-04T12:47:56;6.13;;;2.42;;
75739;SDS011;64357;51.344;6.550;2024-02-04T12:50:22;5.20;;;2.40;;
75739;SDS011;64357;51.344;6.550;2024-02-04T12:53:07;6.90;;;2.70;;
75739;SDS011;64357;51.344;6.550;2024-02-04T12:55:41;4.72;;;1.90;;
75739;SDS011;64357;51.344;6.550;2024-02-04T12:58:08;6.65;;;2.58;;
75739;SDS011;64357;51.344;6.550;2024-02-04T13:00:37;10.30;;;3.00;;
75739;SDS011;64357;51.344;6.550;2024-02-04T13:03:03;9.55;;;3.15;;
75739;SDS011;64357;51.344;6.550;2024-02-04T13:05:30;6.93;;;2.63;;
75739;SDS011;64357;51.344;6.550;2024-02-04T13:08:00;6.75;;;2.75;;
75739;SDS011;64357;51.344;6.550;2024-02-04T13:10:40;7.82;;;2.85;;
75739;SDS011;64357;51.344;6.550;2024-02-04T13:13:44;6.85;;;2.53;;
75739;SDS011;64357;51.344;6.550;2024-02-04T13:16:12;6.47;;;3.05;;
75739;SDS011;64357;51.344;6.550;2024-02-04T13:18:38;6.38;;;2.40;;
75739;SDS011;64357;51.344;6.550;2024-02-04T13:21:08;7.30;;;3.17;;
75739;SDS011;64357;51.344;6.550;2024-02-04T13:23:36;7.20;;;2.67;;
75739;SDS011;64357;51.344;6.550;2024-02-04T13:26:04;7.65;;;3.58;;
75739;SDS011;64357;51.344;6.550;2024-02-04T13:28:33;6.07;;;2.83;;
75739;SDS011;64357;51.344;6.550;2024-02-04T13:30:58;11.95;;;3.83;;
75739;SDS011;64357;51.344;6.550;2024-02-04T13:33:26;7.23;;;3.27;;
75739;SDS011;64357;51.344;6.550;2024-02-04T13:35:51;9.80;;;3.78;;
75739;SDS011;64357;51.344;6.550;2024-02-04T13:38:20;10.60;;;4.07;;
75739;SDS011;64357;51.344;6.550;2024-02-04T13:40:53;8.68;;;3.67;;
75739;SDS011;64357;51.344;6.550;2024-02-04T13:43:18;11.50;;;4.00;;
75739;SDS011;64357;51.344;6.550;2024-02-04T13:45:44;9.43;;;4.10;;
75739;SDS011;64357;51.344;6.550;2024-02-04T13:48:09;12.95;;;5.32;;
75739;SDS011;64357;51.344;6.550;2024-02-04T13:50:35;13.27;;;6.37;;
75739;SDS011;64357;51.344;6.550;2024-02-04T13:53:02;9.70;;;3.40;;
75739;SDS011;64357;51.344;6.550;2024-02-04T13:55:28;10.93;;;5.25;;
75739;SDS011;64357;51.344;6.550;2024-02-04T13:57:53;13.15;;;4.40;;
75739;SDS011;64357;51.344;6.550;2024-02-04T14:00:19;10.23;;;4.38;;
75739;SDS011;64357;51.344;6.550;2024-02-04T14:02:44;8.48;;;3.33;;
75739;SDS011;64357;51.344;6.550;2024-02-04T14:05:14;8.82;;;4.15;;
75739;SDS011;64357;51.344;6.550;2024-02-04T14:07:50;9.02;;;3.65;;
75739;SDS011;64357;51.344;6.550;2024-02-04T14:10:16;9.15;;;3.85;;
75739;SDS011;64357;51.344;6.550;2024-02-04T14:12:44;9.32;;;3.28;;
75739;SDS011;64357;51.344;6.550;2024-02-04T14:15:11;8.75;;;3.20;;
75739;SDS011;64357;51.344;6.550;2024-02-04T14:17:40;13.02;;;4.47;;
75739;SDS011;64357;51.344;6.550;2024-02-04T14:20:08;9.38;;;3.25;;
75739;SDS011;64357;51.344;6.550;2024-02-04T14:22:41;7.50;;;2.90;;
75739;SDS011;64357;51.344;6.550;2024-02-04T14:25:07;8.82;;;3.40;;
75739;SDS011;64357;51.344;6.550;2024-02-04T14:27:35;8.55;;;2.78;;
75739;SDS011;64357;51.344;6.550;2024-02-04T14:30:02;9.40;;;3.35;;
75739;SDS011;64357;51.344;6.550;2024-02-04T14:32:30;6.03;;;2.47;;
75739;SDS011;64357;51.344;6.550;2024-02-04T14:34:59;8.43;;;2.50;;
75739;SDS011;64357;51.344;6.550;2024-02-04T14:37:24;5.63;;;2.40;;
75739;SDS011;64357;51.344;6.550;2024-02-04T14:39:50;9.63;;;2.77;;
75739;SDS011;64357;51.344;6.550;2024-02-04T14:42:20;6.43;;;2.97;;
75739;SDS011;64357;51.344;6.550;2024-02-04T14:44:48;6.63;;;2.50;;
75739;SDS011;64357;51.344;6.550;2024-02-04T14:47:20;7.65;;;2.30;;
75739;SDS011;64357;51.344;6.550;2024-02-04T14:49:46;3.28;;;1.50;;
75739;SDS011;64357;51.344;6.550;2024-02-04T14:52:14;7.97;;;2.63;;
75739;SDS011;64357;51.344;6.550;2024-02-04T14:54:50;5.75;;;1.88;;
75739;SDS011;64357;51.344;6.550;2024-02-04T14:57:15;6.10;;;2.80;;
75739;SDS011;64357;51.344;6.550;2024-02-04T14:59:41;4.53;;;1.77;;
75739;SDS011;64357;51.344;6.550;2024-02-04T15:02:08;6.20;;;2.58;;
75739;SDS011;64357;51.344;6.550;2024-02-04T15:04:36;5.60;;;2.13;;
75739;SDS011;64357;51.344;6.550;2024-02-04T15:07:01;6.05;;;2.38;;
75739;SDS011;64357;51.344;6.550;2024-02-04T15:09:35;6.05;;;2.35;;
75739;SDS011;64357;51.344;6.550;2024-02-04T15:12:18;7.03;;;2.40;;
75739;SDS011;64357;51.344;6.550;2024-02-04T15:14:44;8.50;;;2.25;;
75739;SDS011;64357;51.344;6.550;2024-02-04T15:17:12;5.40;;;1.70;;
75739;SDS011;64357;51.344;6.550;2024-02-04T15:19:37;4.75;;;2.08;;
75739;SDS011;64357;51.344;6.550;2024-02-04T15:22:03;7.60;;;2.67;;
75739;SDS011;64357;51.344;6.550;2024-02-04T15:24:29;3.72;;;1.30;;
75739;SDS011;64357;51.344;6.550;2024-02-04T15:26:58;5.47;;;2.03;;
75739;SDS011;64357;51.344;6.550;2024-02-04T15:29:30;4.40;;;1.70;;
75739;SDS011;64357;51.344;6.550;2024-02-04T15:32:01;5.20;;;2.00;;
75739;SDS011;64357;51.344;6.550;2024-02-04T15:34:36;6.85;;;1.50;;
75739;SDS011;64357;51.344;6.550;2024-02-04T15:37:02;5.40;;;2.28;;
75739;SDS011;64357;51.344;6.550;2024-02-04T15:39:31;6.03;;;2.53;;
75739;SDS011;64357;51.344;6.550;2024-02-04T15:41:56;6.50;;;1.60;;
75739;SDS011;64357;51.344;6.550;2024-02-04T15:44:25;6.38;;;2.20;;
75739;SDS011;64357;51.344;6.550;2024-02-04T15:46:51;3.80;;;1.33;;
75739;SDS011;64357;51.344;6.550;2024-02-04T15:49:39;2.97;;;1.00;;
75739;SDS011;64357;51.344;6.550;2024-02-04T15:52:42;6.75;;;2.42;;
75739;SDS011;64357;51.344;6.550;2024-02-04T15:55:09;5.80;;;1.70;;
75739;SDS011;64357;51.344;6.550;2024-02-04T15:57:52;4.18;;;1.00;;
75739;SDS011;64357;51.344;6.550;2024-02-04T16:00:33;8.68;;;2.30;;
75739;SDS011;64357;51.344;6.550;2024-02-04T16:03:17;6.65;;;1.83;;
75739;SDS011;64357;51.344;6.550;2024-02-04T16:08:24;5.10;;;2.30;;
75739;SDS011;64357;51.344;6.550;2024-02-04T16:10:50;2.83;;;1.45;;
75739;SDS011;64357;51.344;6.550;2024-02-04T16:13:23;6.68;;;2.15;;
75739;SDS011;64357;51.344;6.550;2024-02-04T16:16:07;5.10;;;1.92;;
75739;SDS011;64357;51.344;6.550;2024-02-04T16:18:41;9.27;;;2.55;;
75739;SDS011;64357;51.344;6.550;2024-02-04T16:21:09;5.20;;;1.80;;
75739;SDS011;64357;51.344;6.550;2024-02-04T16:23:40;7.47;;;1.80;;
75739;SDS011;64357;51.344;6.550;2024-02-04T16:26:05;5.75;;;1.60;;
75739;SDS011;64357;51.344;6.550;2024-02-04T16:28:31;3.65;;;1.27;;